Canutama, Brazil
Current Conditions -  °F | °C
As of 8:00 AM on Sunday 25 Jan 2015 (Local Time) from SBUY Reporting Station
Broken Clouds Broken Clouds  
Wind Chill: 73°   Ceiling: 500
Heat Index: 73°   Visibility: 4mi
Dew Point: 72°   Wind: 0mph
Humidity: 94%   Direction: NA
Pressure: 29.88"   Gusts: NA
Location:  6.53°S, 64.34°W
Report Text: SBUY 251200Z 00000KT 7000 BKN005 BKN100 23/22 Q1012
Loading
Personal Weather Stations






























Interactive Weather Map New forecast layout! Learn more

10-Day Weather Forecast

Advertisements
Track Severe Weather on mobile